Time;durP1;ratioP1;P1;durP2;ratioP2;P2;SDS_P1;SDS_P2;PMS_P1;PMS_P2;Temp;Humidity;BMP_temperature;BMP_pressure;BME280_temperature;BME280_humidity;BME280_pressure;Samples;Min_cycle;Max_cycle;Signal;HPM_P1;HPM_P2
2022/08/11 00:00:45;;;;;;;1.67;1.48;;;;;;;19.57;49.12;99019.78;4201634;28;20215;-59
2022/08/11 00:02:51;;;;;;;1.60;1.50;;;;;;;19.50;49.30;99016.50;4186859;28;20363;-59
2022/08/11 00:04:55;;;;;;;4.65;1.70;;;;;;;19.47;49.63;99022.66;4190180;28;20207;-59
2022/08/11 00:07:01;;;;;;;2.85;1.73;;;;;;;19.44;49.60;99010.19;4184254;28;20272;-59
2022/08/11 00:09:07;;;;;;;2.35;1.60;;;;;;;19.42;49.79;99026.31;4172566;28;20349;-59
2022/08/11 00:11:10;;;;;;;1.73;1.58;;;;;;;19.38;49.88;99024.44;4188199;28;20617;-59
2022/08/11 00:13:12;;;;;;;4.72;2.13;;;;;;;19.33;49.83;99018.94;4190093;28;20223;-58
2022/08/11 00:15:18;;;;;;;4.05;1.55;;;;;;;19.30;49.71;99016.72;4183967;28;20682;-58
2022/08/11 00:17:26;;;;;;;5.05;1.80;;;;;;;19.29;49.68;99032.56;4184480;28;20231;-58
2022/08/11 00:19:31;;;;;;;1.60;1.50;;;;;;;19.28;49.53;99024.53;4168254;28;20366;-57
2022/08/11 00:21:54;;;;;;;1.90;1.52;;;;;;;19.28;49.79;99019.81;4185178;28;20662;-57
2022/08/11 00:24:07;;;;;;;5.65;1.60;;;;;;;19.28;49.92;99024.53;4185403;28;20211;-58
2022/08/11 00:26:10;;;;;;;4.13;1.63;;;;;;;19.24;50.34;99018.75;4166774;28;20666;-58
2022/08/11 00:28:31;;;;;;;1.70;1.60;;;;;;;19.24;50.43;99021.53;4189668;28;20195;-58
2022/08/11 00:30:39;;;;;;;1.98;1.85;;;;;;;19.22;50.70;99015.44;4184985;28;20265;-58
2022/08/11 00:32:43;;;;;;;1.80;1.67;;;;;;;19.20;50.69;99022.41;4187177;28;20226;-58
2022/08/11 00:34:46;;;;;;;1.95;1.75;;;;;;;19.19;50.79;99010.44;4188602;28;20199;-58
2022/08/11 00:37:00;;;;;;;2.28;1.67;;;;;;;19.16;50.81;99016.59;4169746;28;20212;-58
2022/08/11 00:39:06;;;;;;;3.88;2.03;;;;;;;19.15;50.82;99019.66;4169733;28;20628;-58
2022/08/11 00:41:20;;;;;;;5.63;2.30;;;;;;;19.06;51.16;99021.41;4181671;28;20222;-57
2022/08/11 00:43:48;;;;;;;6.15;1.65;;;;;;;18.98;51.25;99019.28;4187098;28;20231;-58
2022/08/11 00:46:08;;;;;;;2.30;1.92;;;;;;;18.94;51.31;99030.13;4182432;28;20208;-58
2022/08/11 00:48:21;;;;;;;2.13;2.03;;;;;;;18.90;51.36;99023.50;4186218;28;20642;-58
2022/08/11 00:50:39;;;;;;;1.60;1.50;;;;;;;18.88;51.60;99022.97;4183759;28;20200;-58
2022/08/11 00:52:56;;;;;;;2.42;2.10;;;;;;;18.86;51.32;99022.41;4183440;28;20680;-58
2022/08/11 00:55:32;;;;;;;4.20;1.80;;;;;;;18.85;51.55;99028.28;4184718;28;20225;-58
2022/08/11 00:57:53;;;;;;;2.13;2.00;;;;;;;18.81;51.53;99027.19;4178256;28;20723;-58
2022/08/11 01:00:10;;;;;;;1.75;1.30;;;;;;;18.81;51.63;99027.19;4181857;28;20686;-58
2022/08/11 01:02:17;;;;;;;2.05;1.85;;;;;;;18.81;51.53;99030.81;4184569;28;20231;-58
2022/08/11 01:04:47;;;;;;;2.58;1.50;;;;;;;18.79;51.71;99026.66;4177547;28;20207;-58
2022/08/11 01:07:08;;;;;;;1.80;1.50;;;;;;;18.74;51.53;99024.75;4172064;28;20228;-58
2022/08/11 01:09:28;;;;;;;1.50;1.40;;;;;;;18.68;51.82;99025.06;4182381;28;20547;-58
2022/08/11 01:11:55;;;;;;;1.90;1.70;;;;;;;18.66;51.85;99024.53;4178522;28;20204;-58
2022/08/11 01:14:08;;;;;;;3.47;1.85;;;;;;;18.62;51.90;99029.00;4184324;28;20216;-59
2022/08/11 01:16:22;;;;;;;2.00;1.70;;;;;;;18.60;51.67;99022.94;4185371;28;20204;-59
2022/08/11 01:18:52;;;;;;;3.35;1.75;;;;;;;18.52;51.95;99018.00;4185888;28;20612;-59
2022/08/11 01:21:22;;;;;;;1.80;1.70;;;;;;;18.44;51.87;99026.94;4203274;28;20234;-59
2022/08/11 01:23:48;;;;;;;1.98;1.55;;;;;;;18.41;52.06;99028.34;4202482;28;20228;-58
2022/08/11 01:25:56;;;;;;;2.65;1.95;;;;;;;18.35;52.18;99025.88;4187381;28;20204;-58
2022/08/11 01:28:13;;;;;;;3.45;1.70;;;;;;;18.32;52.24;99020.94;4191297;28;20288;-58
2022/08/11 01:30:33;;;;;;;1.73;1.63;;;;;;;18.28;52.25;99025.34;4187391;28;20203;-58
2022/08/11 01:32:54;;;;;;;1.70;1.60;;;;;;;18.20;52.49;99024.03;4187586;28;20231;-58
2022/08/11 01:35:23;;;;;;;4.03;1.98;;;;;;;18.14;52.48;99029.88;4188906;28;20255;-58
2022/08/11 01:37:53;;;;;;;2.38;2.20;;;;;;;18.13;52.58;99033.75;4185898;28;20273;-57
2022/08/11 01:40:22;;;;;;;2.00;1.70;;;;;;;18.14;52.83;99032.63;4187996;28;20844;-56
2022/08/11 01:45:16;;;;;;;2.50;1.70;;;;;;;18.08;52.83;99036.56;4187520;28;20208;-58
2022/08/11 01:47:49;;;;;;;1.83;1.73;;;;;;;18.04;53.01;99041.84;4192826;28;20257;-58
2022/08/11 01:50:04;;;;;;;3.58;1.65;;;;;;;18.03;53.23;99039.34;4174509;28;20226;-59
2022/08/11 01:52:25;;;;;;;2.05;1.95;;;;;;;17.96;53.36;99034.13;4190192;28;20227;-59
2022/08/11 01:55:14;;;;;;;2.50;2.30;;;;;;;17.94;53.46;99036.38;4171493;28;20222;-59
2022/08/11 01:57:29;;;;;;;2.58;1.90;;;;;;;17.90;53.56;99026.13;4189183;28;20234;-59
2022/08/11 01:59:36;;;;;;;2.50;2.30;;;;;;;17.86;53.88;99030.59;4182071;28;21806;-58
2022/08/11 02:01:57;;;;;;;2.60;1.88;;;;;;;17.82;53.80;99032.25;4170648;28;20756;-58
2022/08/11 02:04:11;;;;;;;1.80;1.70;;;;;;;17.78;53.84;99033.97;4190636;28;20195;-58
2022/08/11 02:09:09;;;;;;;2.08;1.90;;;;;;;17.73;54.08;99034.78;4187159;28;20533;-59
2022/08/11 02:11:35;;;;;;;2.00;1.85;;;;;;;17.71;54.32;99030.66;4166333;28;20204;-59
2022/08/11 02:13:47;;;;;;;4.25;1.45;;;;;;;17.66;54.29;99034.25;4186031;28;20234;-58
2022/08/11 02:15:55;;;;;;;5.55;1.85;;;;;;;17.62;54.21;99029.56;4183613;28;20204;-59
2022/08/11 02:17:57;;;;;;;2.58;2.15;;;;;;;17.62;54.32;99029.56;4171412;28;20220;-59
2022/08/11 02:25:57;;;;;;;4.32;2.22;;;;;;;17.53;54.79;99034.84;4183109;28;20207;-57
2022/08/11 02:28:09;;;;;;;5.05;2.30;;;;;;;17.51;54.68;99041.81;4185056;28;20600;-58
2022/08/11 02:30:16;;;;;;;5.20;2.15;;;;;;;17.48;54.69;99042.38;4169705;28;20208;-59
2022/08/11 02:34:57;;;;;;;2.25;2.15;;;;;;;17.45;54.44;99038.22;4184489;28;20199;-58
2022/08/11 02:37:23;;;;;;;2.03;1.73;;;;;;;17.46;54.22;99039.06;4191160;28;20207;-58
2022/08/11 02:39:38;;;;;;;2.10;1.90;;;;;;;17.41;54.36;99037.13;4170863;28;20659;-59
2022/08/11 02:44:35;;;;;;;2.17;1.85;;;;;;;17.41;54.42;99030.75;4185923;28;20549;-58
2022/08/11 02:46:45;;;;;;;2.55;1.80;;;;;;;17.40;54.40;99034.66;4184189;28;20763;-59
2022/08/11 02:49:56;;;;;;;2.25;2.05;;;;;;;17.36;54.33;99042.66;4186912;28;20211;-58
2022/08/11 02:51:57;;;;;;;1.70;1.60;;;;;;;17.34;54.61;99038.50;4179697;28;20204;-58
2022/08/11 02:54:21;;;;;;;2.80;1.83;;;;;;;17.33;54.61;99040.41;4183004;28;20203;-57
2022/08/11 02:56:46;;;;;;;3.05;1.73;;;;;;;17.35;54.56;99037.38;4184065;28;20200;-57
2022/08/11 02:59:49;;;;;;;2.05;1.63;;;;;;;17.30;54.71;99042.91;4166509;28;20221;-57
2022/08/11 03:01:18;;;;;;;2.33;2.17;;;;;;;17.33;54.71;99042.38;4184248;28;20229;-56
2022/08/11 03:03:25;;;;;;;2.17;2.08;;;;;;;17.29;54.82;99046.81;4187230;28;20231;-57
2022/08/11 03:05:36;;;;;;;2.47;1.92;;;;;;;17.28;54.57;99053.44;4170688;28;20259;-58
2022/08/11 03:08:09;;;;;;;2.75;2.15;;;;;;;17.24;54.79;99052.34;4169181;28;20251;-58
2022/08/11 03:10:26;;;;;;;2.75;1.80;;;;;;;17.21;54.75;99053.75;4186623;28;20200;-58
2022/08/11 03:16:44;;;;;;;2.08;1.88;;;;;;;17.15;54.85;99054.03;4182725;28;20363;-57
2022/08/11 03:18:16;;;;;;;3.05;2.03;;;;;;;17.10;55.44;99045.72;4184168;28;20223;-58
2022/08/11 03:20:34;;;;;;;1.80;1.70;;;;;;;17.10;55.05;99040.19;4190186;28;20244;-58
2022/08/11 03:22:51;;;;;;;2.35;2.15;;;;;;;17.08;55.25;99048.81;4177886;28;20231;-58
2022/08/11 03:25:01;;;;;;;1.55;1.45;;;;;;;17.04;55.36;99047.69;4187618;28;20644;-57
2022/08/11 03:27:10;;;;;;;1.83;1.73;;;;;;;17.01;55.48;99058.47;4184705;28;20207;-57
2022/08/11 03:29:36;;;;;;;2.90;2.10;;;;;;;16.96;55.26;99044.66;4187754;28;20233;-57
2022/08/11 03:32:13;;;;;;;2.08;1.98;;;;;;;16.90;55.42;99044.94;4185531;28;20204;-58
2022/08/11 03:34:20;;;;;;;2.95;2.55;;;;;;;16.87;55.73;99045.47;4183706;28;20285;-57
2022/08/11 03:36:40;;;;;;;2.60;1.90;;;;;;;16.89;55.57;99048.81;4184527;28;20207;-57
2022/08/11 03:39:02;;;;;;;2.20;1.70;;;;;;;16.85;55.84;99043.03;4181986;28;20643;-57
2022/08/11 03:44:36;;;;;;;2.88;2.47;;;;;;;16.81;55.59;99046.59;4185028;28;20203;-58
2022/08/11 03:46:58;;;;;;;2.30;2.10;;;;;;;16.80;55.79;99051.31;4185797;28;20297;-57
2022/08/11 03:49:10;;;;;;;1.98;1.85;;;;;;;16.78;55.73;99050.75;4184918;28;20207;-56
2022/08/11 03:51:39;;;;;;;3.05;2.20;;;;;;;16.75;55.81;99051.31;4189155;28;20225;-57
2022/08/11 03:54:15;;;;;;;2.08;1.98;;;;;;;16.67;56.01;99051.84;4177863;28;20258;-56
2022/08/11 03:56:18;;;;;;;2.22;2.03;;;;;;;16.70;55.93;99044.94;4189207;28;20250;-58
2022/08/11 03:58:25;;;;;;;2.15;1.80;;;;;;;16.64;56.09;99049.63;4189034;28;20668;-57
2022/08/11 04:00:46;;;;;;;5.72;2.00;;;;;;;16.65;56.26;99042.19;4198693;28;20206;-57
2022/08/11 04:03:06;;;;;;;3.33;3.13;;;;;;;16.63;55.92;99053.50;4187886;28;20215;-58
2022/08/11 04:05:14;;;;;;;6.47;2.40;;;;;;;16.63;56.26;99049.94;4189624;28;20207;-58
2022/08/11 04:07:40;;;;;;;3.30;2.28;;;;;;;16.61;56.23;99055.72;4181196;28;20199;-58
2022/08/11 04:10:29;;;;;;;7.85;1.95;;;;;;;16.63;56.47;99045.22;4185328;28;20208;-58
2022/08/11 04:12:50;;;;;;;3.88;2.47;;;;;;;16.54;56.37;99052.41;4123796;28;20256;-58
2022/08/11 04:17:56;;;;;;;3.67;2.42;;;;;;;16.52;56.63;99054.63;4155180;28;20254;-58
2022/08/11 04:20:29;;;;;;;4.90;2.70;;;;;;;16.51;56.74;99044.69;4185001;28;20199;-59
2022/08/11 04:22:40;;;;;;;2.75;2.55;;;;;;;16.45;56.98;99048.53;4185803;28;20257;-59
2022/08/11 04:25:15;;;;;;;2.25;1.83;;;;;;;16.45;56.89;99054.06;4182554;28;20204;-58
2022/08/11 04:27:41;;;;;;;1.77;1.67;;;;;;;16.43;56.95;99042.44;4188181;28;20202;-59
2022/08/11 04:30:05;;;;;;;2.38;2.17;;;;;;;16.39;56.79;99043.25;4201239;28;20206;-57
2022/08/11 04:32:34;;;;;;;4.72;2.33;;;;;;;16.39;56.96;99043.25;4187655;28;21022;-58
2022/08/11 04:34:53;;;;;;;2.40;2.20;;;;;;;16.40;57.01;99050.44;4188029;28;20610;-57
2022/08/11 04:37:33;;;;;;;11.30;2.28;;;;;;;16.37;57.24;99046.25;4182119;28;20703;-57
2022/08/11 04:39:55;;;;;;;3.33;2.17;;;;;;;16.35;57.16;99053.19;4184575;28;20273;-57
2022/08/11 04:45:35;;;;;;;5.10;2.67;;;;;;;16.35;57.29;99054.00;4176745;28;20203;-59
2022/08/11 05:01:41;;;;;;;43.83;5.50;;;;;;;16.30;58.02;99062.28;4167494;28;20203;-58
2022/08/11 05:05:29;;;;;;;13.45;4.07;;;;;;;16.29;58.21;99066.16;4188901;28;20207;-56
2022/08/11 05:07:03;;;;;;;22.55;3.80;;;;;;;16.31;58.80;99069.47;4187941;28;20670;-59
2022/08/11 05:09:23;;;;;;;17.85;6.05;;;;;;;16.43;58.12;99072.81;4187830;28;20211;-57
2022/08/11 05:12:06;;;;;;;23.63;5.25;;;;;;;16.50;58.12;99061.53;4190562;28;20210;-59
2022/08/11 05:36:40;;;;;;;4.63;2.38;;;;;;;17.18;56.11;99067.31;4186226;28;20214;-57
2022/08/11 05:58:12;;;;;;;5.78;3.00;;;;;;;18.65;54.36;99075.59;4186065;28;20234;-58
2022/08/11 06:00:14;;;;;;;2.70;2.17;;;;;;;18.84;53.65;99073.78;4186225;28;20203;-59
2022/08/11 06:02:16;;;;;;;2.17;1.73;;;;;;;19.01;53.89;99080.56;4185981;28;20231;-58
2022/08/11 06:04:21;;;;;;;4.10;2.28;;;;;;;19.13;53.36;99078.19;4171000;28;20208;-58
2022/08/11 06:06:27;;;;;;;2.63;2.20;;;;;;;19.22;52.97;99075.66;4203952;28;20210;-59
2022/08/11 06:08:30;;;;;;;3.53;2.15;;;;;;;19.40;53.13;99078.56;4193406;28;20211;-59
2022/08/11 06:10:34;;;;;;;2.08;1.67;;;;;;;19.46;52.40;99082.91;4185055;28;20646;-59
2022/08/11 06:12:36;;;;;;;5.47;2.80;;;;;;;19.68;52.17;99079.63;4182798;28;20224;-59
2022/08/11 06:14:44;;;;;;;12.48;2.13;;;;;;;19.84;51.78;99087.47;4184116;28;20323;-59
2022/08/11 06:16:48;;;;;;;2.70;1.90;;;;;;;19.99;50.84;99086.47;4168243;28;20246;-58
2022/08/11 06:18:50;;;;;;;2.47;1.98;;;;;;;19.87;51.11;99088.84;4184330;28;20223;-58
2022/08/11 06:20:56;;;;;;;5.65;2.20;;;;;;;19.86;51.24;99088.00;4187323;28;20208;-58
2022/08/11 06:23:02;;;;;;;2.55;1.80;;;;;;;20.05;50.65;99090.84;4201214;28;20222;-59
2022/08/11 06:25:06;;;;;;;2.88;2.00;;;;;;;20.13;51.15;99093.00;4186118;28;20618;-58
2022/08/11 06:27:08;;;;;;;6.03;2.03;;;;;;;20.38;51.36;99089.88;4185319;28;20261;-57
2022/08/11 06:29:17;;;;;;;2.22;1.85;;;;;;;20.58;50.91;99092.38;4180182;28;20202;-57
2022/08/11 06:31:24;;;;;;;7.00;3.03;;;;;;;20.78;50.33;99094.84;4187027;28;20212;-57
2022/08/11 06:33:49;;;;;;;10.43;2.00;;;;;;;20.91;50.53;99077.41;4182418;28;20249;-58
2022/08/11 06:36:15;;;;;;;4.60;2.63;;;;;;;21.11;50.18;99079.84;4183566;28;20207;-57
2022/08/11 06:38:36;;;;;;;3.38;1.80;;;;;;;21.23;49.61;99083.00;4185326;28;20264;-58
2022/08/11 06:41:29;;;;;;;2.63;1.63;;;;;;;21.39;49.16;99078.78;4188971;28;20203;-57
2022/08/11 06:43:22;;;;;;;2.15;1.90;;;;;;;21.56;48.48;99090.16;4187974;28;20754;-57
2022/08/11 06:45:31;;;;;;;3.28;1.95;;;;;;;21.65;48.42;99094.72;4185996;28;20221;-57
2022/08/11 06:47:34;;;;;;;7.25;1.80;;;;;;;21.77;48.37;99088.69;4171419;28;20347;-57
2022/08/11 06:52:02;;;;;;;3.13;1.90;;;;;;;22.01;47.85;99097.66;4186802;28;20237;-58
2022/08/11 06:54:06;;;;;;;3.05;1.58;;;;;;;22.12;47.42;99093.53;4176669;28;20195;-57
2022/08/11 07:01:00;;;;;;;1.98;1.85;;;;;;;22.66;47.19;99085.09;4188183;28;20221;-58
2022/08/11 07:03:07;;;;;;;4.18;1.70;;;;;;;22.81;46.88;99090.31;4184155;28;20219;-59
2022/08/11 07:05:27;;;;;;;2.13;1.67;;;;;;;22.98;46.36;99085.69;4183866;28;20203;-58
2022/08/11 07:15:47;;;;;;;1.90;1.70;;;;;;;23.90;44.89;99080.25;4187598;28;20293;-58
2022/08/11 07:30:16;;;;;;;3.08;1.80;;;;;;;23.81;42.36;99083.78;4185188;28;20218;-58
2022/08/11 07:32:26;;;;;;;3.08;1.40;;;;;;;23.96;41.84;99081.75;4187203;28;20216;-58
2022/08/11 07:34:35;;;;;;;2.72;1.60;;;;;;;23.97;41.94;99080.59;4187732;28;20210;-58
2022/08/11 07:36:44;;;;;;;6.35;2.30;;;;;;;24.18;42.35;99083.31;4190174;28;20207;-59
2022/08/11 07:38:50;;;;;;;2.85;1.25;;;;;;;24.53;41.93;99076.63;4171268;28;20253;-58
2022/08/11 07:40:57;;;;;;;4.13;1.50;;;;;;;24.77;41.60;99079.81;4185648;28;20211;-58
2022/08/11 07:42:59;;;;;;;2.65;1.80;;;;;;;25.11;41.25;99071.41;4171073;28;20227;-58
2022/08/11 07:54:29;;;;;;;2.70;1.67;;;;;;;25.76;40.08;99068.31;4185812;28;20214;-59
2022/08/11 07:56:38;;;;;;;3.38;2.00;;;;;;;25.32;39.15;99061.19;4184750;28;20211;-57
2022/08/11 08:18:15;;;;;;;2.45;1.75;;;;;;;25.94;38.18;99059.50;4186064;28;20199;-58
2022/08/11 08:20:50;;;;;;;3.88;1.63;;;;;;;26.05;38.03;99055.19;4186350;28;20309;-58
2022/08/11 08:22:58;;;;;;;4.65;1.67;;;;;;;26.37;38.26;99062.09;4175024;28;20222;-60
2022/08/11 08:25:00;;;;;;;1.60;1.50;;;;;;;26.34;37.22;99058.00;4170659;28;20726;-58
2022/08/11 08:27:02;;;;;;;2.45;1.27;;;;;;;26.57;37.67;99055.72;4186608;28;20248;-56
2022/08/11 08:31:36;;;;;;;4.93;1.40;;;;;;;27.02;37.69;99063.13;4185673;28;20268;-59
2022/08/11 08:33:39;;;;;;;7.88;1.60;;;;;;;27.05;36.52;99056.00;4182052;28;20708;-58
2022/08/11 08:35:44;;;;;;;2.47;1.60;;;;;;;27.45;36.89;99054.31;4181977;28;20204;-57
2022/08/11 08:37:57;;;;;;;3.13;1.50;;;;;;;27.85;36.42;99049.72;4184461;28;20215;-58
2022/08/11 08:39:59;;;;;;;7.13;1.70;;;;;;;28.06;36.15;99065.31;4181890;28;20292;-59
2022/08/11 08:42:06;;;;;;;6.72;1.70;;;;;;;28.08;35.69;99063.00;4170057;28;20243;-57
2022/08/11 08:44:09;;;;;;;1.60;1.38;;;;;;;28.24;35.04;99060.31;4182732;28;20294;-58
2022/08/11 08:46:35;;;;;;;1.40;1.30;;;;;;;27.80;34.86;99055.59;4179982;28;20202;-58
2022/08/11 08:48:37;;;;;;;2.20;1.45;;;;;;;27.59;35.28;99055.63;4170665;28;20203;-56
2022/08/11 08:53:05;;;;;;;5.30;1.67;;;;;;;27.24;36.29;99045.91;4182692;28;20230;-58
2022/08/11 08:55:09;;;;;;;4.30;1.90;;;;;;;27.57;35.76;99055.16;4182501;28;20217;-60
2022/08/11 08:57:12;;;;;;;5.60;1.77;;;;;;;27.71;35.97;99052.03;4181040;28;20203;-58
2022/08/11 08:59:14;;;;;;;3.80;1.45;;;;;;;27.85;35.32;99046.91;4182413;28;20234;-58
2022/08/11 09:01:17;;;;;;;3.47;1.83;;;;;;;27.98;35.28;99052.19;4183872;28;20249;-57
2022/08/11 09:03:20;;;;;;;5.63;1.40;;;;;;;27.76;34.94;99049.84;4184088;28;20231;-57
2022/08/11 09:05:42;;;;;;;2.42;1.50;;;;;;;28.31;35.04;99060.53;4172354;28;20212;-58
2022/08/11 09:07:46;;;;;;;2.15;1.60;;;;;;;28.20;33.77;99065.78;4183359;28;20206;-57
2022/08/11 09:09:50;;;;;;;9.73;2.58;;;;;;;27.70;34.27;99053.16;4168196;28;20218;-56
2022/08/11 09:11:52;;;;;;;4.15;2.03;;;;;;;28.21;34.90;99059.03;4198522;28;20199;-58
2022/08/11 09:13:54;;;;;;;2.20;1.67;;;;;;;28.68;34.43;99064.97;4183826;28;20286;-56
2022/08/11 09:16:08;;;;;;;4.00;2.05;;;;;;;28.47;34.01;99067.97;4169480;28;20203;-58
2022/08/11 09:18:11;;;;;;;4.50;1.75;;;;;;;28.54;34.23;99058.91;4200837;28;20272;-58
2022/08/11 09:20:16;;;;;;;5.90;1.50;;;;;;;27.93;33.59;99051.59;4165555;28;20459;-54
2022/08/11 09:27:05;;;;;;;5.07;1.40;;;;;;;28.82;33.08;99059.78;4185108;28;20256;-54
2022/08/11 09:29:09;;;;;;;1.23;1.13;;;;;;;29.30;32.61;99040.72;4190677;28;20191;-54
2022/08/11 09:31:12;;;;;;;9.70;1.70;;;;;;;29.35;32.48;99059.38;4183323;28;20886;-54
2022/08/11 09:33:15;;;;;;;2.55;1.52;;;;;;;28.94;32.17;99057.78;4173692;28;20223;-55
2022/08/11 09:35:18;;;;;;;2.72;1.30;;;;;;;28.90;32.76;99045.53;4182691;28;20200;-55
2022/08/11 09:42:20;;;;;;;2.30;1.58;;;;;;;29.20;32.51;99049.72;4187511;28;20227;-54
2022/08/11 09:46:47;;;;;;;2.78;1.48;;;;;;;28.88;32.15;99050.72;4185773;28;20777;-55
2022/08/11 09:48:53;;;;;;;2.75;1.33;;;;;;;29.20;31.40;99046.88;4172262;28;20338;-55
2022/08/11 09:50:58;;;;;;;3.67;1.20;;;;;;;28.92;31.86;99046.00;4193175;28;20776;-55
2022/08/11 09:53:02;;;;;;;3.67;1.20;;;;;;;29.18;31.54;99040.75;4194553;28;20223;-55
2022/08/11 09:55:24;;;;;;;6.32;1.35;;;;;;;29.03;32.15;99033.06;4180321;28;20680;-55
2022/08/11 09:59:47;;;;;;;8.00;1.55;;;;;;;28.97;32.21;99039.31;4184882;28;20223;-54
2022/08/11 10:01:53;;;;;;;1.50;1.10;;;;;;;29.22;31.94;99023.94;4187034;28;20658;-55
2022/08/11 10:04:00;;;;;;;3.53;1.20;;;;;;;28.90;32.40;99036.25;4185249;28;20233;-54
2022/08/11 10:08:38;;;;;;;3.53;1.23;;;;;;;29.45;32.60;99033.47;4187560;28;21159;-55
2022/08/11 10:10:40;;;;;;;3.60;1.60;;;;;;;29.07;32.09;99022.75;4203210;28;20224;-55
2022/08/11 10:12:52;;;;;;;2.65;1.30;;;;;;;28.59;32.18;99034.09;4191016;28;20226;-54
2022/08/11 10:17:19;;;;;;;2.55;1.70;;;;;;;28.68;33.54;99020.72;4188057;28;20601;-55
2022/08/11 10:19:21;;;;;;;1.55;1.25;;;;;;;28.28;33.17;99025.47;4186996;28;20207;-55
2022/08/11 10:21:41;;;;;;;5.10;1.88;;;;;;;28.68;33.45;99020.72;4187439;28;20207;-54
2022/08/11 10:28:34;;;;;;;3.75;1.45;;;;;;;29.00;33.11;99022.53;4188905;28;20707;-54
2022/08/11 10:35:59;;;;;;;4.20;2.08;;;;;;;29.08;33.30;99013.09;4184919;28;20214;-55
2022/08/11 10:38:01;;;;;;;2.30;1.35;;;;;;;29.02;32.60;99005.22;4183077;28;20231;-55
2022/08/11 10:40:14;;;;;;;2.08;1.50;;;;;;;29.04;32.88;98995.25;4185766;28;20230;-55
2022/08/11 10:44:58;;;;;;;1.30;1.20;;;;;;;29.67;32.32;99002.69;4184592;28;20234;-54
2022/08/11 10:49:22;;;;;;;2.33;1.60;;;;;;;29.95;31.42;98992.09;4188640;28;20208;-54
2022/08/11 10:58:48;;;;;;;2.17;1.65;;;;;;;29.31;32.18;98994.41;4186382;28;20209;-55
2022/08/11 11:00:55;;;;;;;2.17;1.50;;;;;;;29.74;31.50;98996.38;4171922;28;20239;-54
2022/08/11 11:02:59;;;;;;;8.68;1.50;;;;;;;29.80;31.58;98983.66;4184448;28;20225;-54
2022/08/11 11:05:28;;;;;;;4.00;1.83;;;;;;;29.95;31.21;98979.97;4183664;28;20238;-54
2022/08/11 11:07:37;;;;;;;1.92;1.08;;;;;;;30.39;31.55;98979.47;4179579;28;20237;-55
2022/08/11 11:09:49;;;;;;;4.63;1.40;;;;;;;30.20;31.40;98976.63;4176835;28;20620;-54
2022/08/11 11:19:19;;;;;;;3.00;1.58;;;;;;;30.62;30.54;98966.28;4176327;28;20294;-55
2022/08/11 11:21:23;;;;;;;2.50;1.65;;;;;;;30.74;31.08;98965.34;4157031;28;20282;-55
2022/08/11 11:23:38;;;;;;;5.78;1.55;;;;;;;30.31;30.82;98960.72;4172607;28;20223;-54
2022/08/11 11:26:08;;;;;;;1.88;1.38;;;;;;;30.35;30.99;98956.00;4158302;28;20753;-54
2022/08/11 11:28:25;;;;;;;2.10;1.40;;;;;;;30.04;30.90;98961.66;4172373;28;20211;-55
2022/08/11 11:30:35;;;;;;;3.70;1.27;;;;;;;29.89;31.22;98959.69;4171727;28;20609;-54
2022/08/11 11:32:55;;;;;;;2.15;1.38;;;;;;;29.95;31.05;98966.69;4154334;28;20239;-55
2022/08/11 11:35:03;;;;;;;3.88;1.40;;;;;;;30.09;30.74;98958.59;4169267;28;20207;-54
2022/08/11 11:37:05;;;;;;;2.90;1.05;;;;;;;29.93;30.96;98960.56;4184766;28;20263;-54
2022/08/11 11:39:07;;;;;;;2.35;1.15;;;;;;;29.87;30.45;98962.06;4167420;28;20243;-54
2022/08/11 11:41:24;;;;;;;1.90;1.45;;;;;;;29.81;30.87;98969.19;4153486;28;20338;-54
2022/08/11 11:43:26;;;;;;;1.25;1.15;;;;;;;29.86;30.96;98949.09;4185541;28;20215;-54
2022/08/11 11:45:28;;;;;;;2.08;1.15;;;;;;;30.06;29.90;98948.00;4172610;28;20204;-54
2022/08/11 11:47:32;;;;;;;2.38;1.20;;;;;;;30.29;29.78;98934.84;4153478;28;20247;-55
2022/08/11 11:49:38;;;;;;;1.98;1.25;;;;;;;30.12;30.44;98926.78;4168056;28;20211;-54
2022/08/11 11:51:40;;;;;;;2.88;1.27;;;;;;;30.21;30.11;98938.72;4156747;28;20195;-54
2022/08/11 11:53:44;;;;;;;1.65;1.55;;;;;;;30.72;29.79;98939.47;4170621;28;20199;-55
2022/08/11 11:55:45;;;;;;;1.30;1.20;;;;;;;31.06;29.74;98930.88;4171938;28;20546;-55
2022/08/11 12:02:35;;;;;;;3.97;1.48;;;;;;;30.99;29.67;98910.94;4170272;28;20232;-54
2022/08/11 12:04:40;;;;;;;5.82;1.35;;;;;;;30.88;29.40;98917.56;4155487;28;20727;-54
2022/08/11 12:06:42;;;;;;;1.70;1.20;;;;;;;31.02;29.14;98921.50;4171466;28;20247;-54
2022/08/11 12:08:48;;;;;;;3.08;0.95;;;;;;;31.31;29.41;98915.22;4157931;28;20243;-54
2022/08/11 12:13:39;;;;;;;1.40;1.27;;;;;;;30.82;28.77;98919.06;4174699;28;20223;-53
2022/08/11 12:15:38;;;;;;;4.13;1.38;;;;;;;30.99;28.61;98913.75;4182894;28;20199;-54
2022/08/11 12:18:00;;;;;;;12.70;1.27;;;;;;;31.14;28.39;98915.69;4171683;28;20264;-54
2022/08/11 12:20:03;;;;;;;2.58;0.98;;;;;;;31.37;28.85;98907.25;4185557;28;20249;-53
2022/08/11 12:27:22;;;;;;;4.22;1.00;;;;;;;31.14;28.40;98898.72;4183650;28;20203;-53
2022/08/11 12:29:26;;;;;;;1.67;1.17;;;;;;;31.29;27.81;98902.63;4185463;28;21119;-52
2022/08/11 12:31:28;;;;;;;2.42;1.13;;;;;;;31.03;27.86;98897.69;4186498;28;20191;-54
2022/08/11 12:33:30;;;;;;;2.65;1.27;;;;;;;31.17;27.60;98885.84;4187123;28;20231;-55
2022/08/11 12:35:35;;;;;;;2.40;1.63;;;;;;;31.37;27.24;98891.06;4184332;28;20226;-54
2022/08/11 12:37:44;;;;;;;4.00;0.93;;;;;;;31.39;27.17;98883.00;4170227;28;20211;-54
2022/08/11 12:45:30;;;;;;;5.35;1.10;;;;;;;31.10;27.52;98885.72;4184655;28;20214;-55
2022/08/11 12:53:06;;;;;;;5.15;1.10;;;;;;;31.83;27.56;98887.03;4185015;28;20492;-55
2022/08/11 12:55:09;;;;;;;1.10;1.00;;;;;;;31.22;27.02;98885.53;4186228;28;20199;-56
2022/08/11 13:06:51;;;;;;;2.63;1.17;;;;;;;30.55;27.66;98875.69;4183689;28;20203;-54
2022/08/11 13:08:56;;;;;;;1.45;1.17;;;;;;;30.73;27.59;98868.44;4169155;28;20211;-54
2022/08/11 13:13:23;;;;;;;1.33;1.08;;;;;;;31.28;27.30;98853.72;4186217;28;20570;-55
2022/08/11 13:15:46;;;;;;;4.32;1.73;;;;;;;31.30;27.43;98862.66;4185131;28;20703;-56
2022/08/11 13:17:50;;;;;;;2.13;1.48;;;;;;;31.37;27.12;98859.94;4190376;28;20264;-56
2022/08/11 13:19:52;;;;;;;2.30;1.67;;;;;;;31.72;27.47;98856.91;4176862;28;20210;-54
2022/08/11 13:21:54;;;;;;;2.22;1.30;;;;;;;31.42;27.02;98849.13;4167587;28;20644;-55
2022/08/11 13:23:56;;;;;;;2.22;1.58;;;;;;;31.34;27.15;98852.22;4186955;28;21206;-54
2022/08/11 13:26:03;;;;;;;2.05;1.30;;;;;;;31.70;27.04;98843.09;4186898;28;20213;-54
2022/08/11 13:28:06;;;;;;;14.13;4.00;;;;;;;32.07;27.25;98846.94;4174816;28;20281;-54
2022/08/11 13:32:28;;;;;;;2.85;1.00;;;;;;;31.62;27.10;98847.03;4186831;28;20272;-55
2022/08/11 13:34:30;;;;;;;1.83;1.05;;;;;;;30.95;26.54;98845.00;4186569;28;20207;-56
2022/08/11 13:36:32;;;;;;;6.93;1.13;;;;;;;30.68;26.93;98840.47;4186114;28;20253;-53
2022/08/11 13:38:34;;;;;;;2.53;1.20;;;;;;;30.80;26.57;98837.47;4184695;28;20210;-54
2022/08/11 13:40:36;;;;;;;2.55;1.42;;;;;;;31.15;25.89;98843.78;4184387;28;20218;-54
2022/08/11 13:42:57;;;;;;;3.58;1.02;;;;;;;31.66;26.09;98830.94;4189882;28;20227;-56
2022/08/11 13:45:00;;;;;;;4.47;2.03;;;;;;;31.91;26.37;98837.78;4185735;28;20309;-55
2022/08/11 13:47:03;;;;;;;2.35;1.20;;;;;;;31.76;25.46;98830.28;4174416;28;20210;-56
2022/08/11 13:49:09;;;;;;;3.70;1.40;;;;;;;31.29;26.10;98832.72;4186028;28;20216;-54
2022/08/11 13:51:30;;;;;;;8.85;1.50;;;;;;;31.45;26.07;98836.22;4191469;28;20648;-56
2022/08/11 13:53:35;;;;;;;3.67;1.20;;;;;;;31.34;26.65;98829.59;4185709;28;20735;-56
2022/08/11 13:55:40;;;;;;;1.30;0.98;;;;;;;31.25;26.67;98826.19;4184072;28;20210;-53
2022/08/11 13:57:53;;;;;;;1.58;1.30;;;;;;;31.27;27.65;98812.50;4184705;28;20213;-55
2022/08/11 14:00:10;;;;;;;7.05;1.15;;;;;;;31.64;27.11;98811.47;4183603;28;20285;-56
2022/08/11 14:02:27;;;;;;;2.50;1.33;;;;;;;31.61;26.43;98817.09;4186369;28;20239;-56
2022/08/11 14:04:57;;;;;;;3.33;1.63;;;;;;;31.44;26.39;98816.81;4168450;28;20207;-55
2022/08/11 14:07:02;;;;;;;2.50;1.10;;;;;;;31.01;26.50;98832.19;4189537;28;20203;-56
2022/08/11 14:09:08;;;;;;;6.68;1.50;;;;;;;30.90;26.57;98819.88;4188862;28;20202;-56
2022/08/11 14:13:51;;;;;;;13.18;5.95;;;;;;;30.99;26.95;98811.94;4184703;28;20929;-56
2022/08/11 14:15:56;;;;;;;2.83;1.10;;;;;;;31.25;26.58;98803.53;4185768;28;20203;-55
2022/08/11 14:18:10;;;;;;;3.25;1.60;;;;;;;31.54;26.94;98806.47;4185525;28;20684;-54